首页
METAR-TAF:

METAR-TAF

机场 :

Tallahassee Regional Airport

塔拉哈西, 佛罗里达州, 美国

纬度: 30-23-35N, 经度: 084-21-12W, 海拔: 24米

当前天气观测

该预报发布于1小时和18分钟前的21:53 UTC
风速5节,风向南转西南
温度 29°C
湿度 70%
气压 1016 hPa
能見度: 16.1公里
少量云层高于4000英尺
多云层高于25000英尺

METAR: KTLH 152153Z 21005KT 10SM FEW040 BKN250 29/23 A3000 RMK AO2 SLP156 T02940233

时间: 19:11 (23:11 UTC)

预报

该预报发布于4小时和56分钟前的18:15 UTC
预报有效从15日的 18点(UTC)到 16日的 18点(UTC)
风速6节,风向南转西南
能見度: 10公里
散云层高于5000英尺, 积雨云.
附近有雷暴
短暂存在
从 15日的 18点(UTC)到 15日的 20点(UTC)
能見度: 3.2公里
散云层高于2000英尺, 积雨云.
多云层高于4000英尺
雷暴, 雨
从 15日的 2300点(UTC)
风速3节,风向多变
能見度: 10公里
散云层高于25000英尺

TAF: KTLH 151815Z 1518/1618 20006KT P6SM VCTS SCT050CB TEMPO 1518/1520 2SM TSRA SCT020CB BKN040 FM152300 VRB03KT P6SM SCT250

超过4000个机场的气象观测和天气预报(METAR&TAF报告)。

可查询的气象台以黄色和红色小点在地图上表示。

将鼠标移到小点上方,可查看气象台名称。

然后点击查看天气观测和预报。

如需切换地图:点击带黑十字的绿色按钮放大地图;点击带横线的绿色按钮缩小地图;或者点击绿色箭头查看邻近地区的地图。


METAR-TAF: